Airfield :
LOGIN :

Register | Disclaimer

   EN    FR    IT 

 










Legend :    VFR   Marginal VFR   IFR   Intensive IFR   Very Intensive IFR
Visi :
Ceiling :
>= 8 km
>= 3000ft
5 to 8 km
1000 to 3000 ft
1500m to 5 km
500 to 1000 ft
800 to 1500m
200 to 500 ft
< 800m
< 200 ft
Symbols :   Thunderstorms  Fog  Heavy snow  Heavy precipitations  Wind > 20 kt
SIGMETs :     Misc.  Thunderstorms  Icing  Turbulence  Mountain Waves  Volcanic Ashes






- Airport Elevation : 327 ft
- IATA code : BHX


EGBB - Birmingham

CURRENT METAR :
  • 270520Z VRB02KT 9000 -RA SCT010 BKN024 02/02 Q0997

EXPIRED METARs :
  • 270450Z 17003KT 9999 -RA FEW011 BKN031 02/02 Q0997
  • 270420Z 16004KT 9000 -RA FEW015 BKN030 02/02 Q0997
  • 270350Z 15003KT 9000 -RA FEW017 BKN022 02/01 Q0998
  • 270320Z 16003KT 9000 -RA SCT016 BKN031 02/01 Q0998
  • 270250Z 18003KT 9999 -RA BKN047 03/01 Q0999

TAF TAF EGBB
Valid from the 27 at 06:00 until the 28 at 06:00 UTC


270505Z 2706/2806 21008KT 9999 SCT020 BKN030
TEMPO 2706/2711 7000 RA BKN006
PROB40
TEMPO 2706/2711 1200 RASN BKN002
BECMG 2711/2713 31012KT
PROB30
TEMPO 2713/2718 32015G25KT
ATIS : +44 121 780 0910



MET'MAP, your aeronautical weather chart ! - Copyright ORBIFLY December 2007 - Disclaimer

ORBIFLY MET'MAP TEAM :

Programming & Development : Alexandra Zaïnal
Concept & original design : Baudouin d'Aumeries
Assistance for programming : Marc-Olivier Méhu
Technical & hardware support : Manuel Goepfert

Contact : metmap@orbifly.com




SOURCES & CREDITS :

   NOAA